TENO2: Tenkiller Lake

Data processed at Thu Oct 11 2018 23:32


All information presented herein is the property of the government of the United States of America and may be revised or deleted at any time without prior notice.
Dissemination of this information without the expressed written consent of the Public Affairs Office, Tulsa District U.S. Army Corps of Engineers is strictly prohibited.
These data are gathered electronically and, as presented, have not undergone any form of quality control. These data are not guaranteed to be valid or correct.
Go to home page.
Go to station list.
Go to home page.

Upstream stations:

Downstream station:
Previous Day
Next Day
Current Day
    
SHEF ID:       TENO2     Tenkiller Lake
STATION TYPE:  Reservoir
Normal Pool:  Bottom =   594.50, Top =   632.00

               PRECIP PRECIP(A) ELEVATION   STORAGE   TW-ELEV    INFLOW   RELEASE  AIR-TEMP  WIND-DIRWIND-SPEED REL-HUMID SOLAR-RAD   VOLTAGE  BAT-LOAD
                   in        in        ft     ac-ft        ft       cfs       cfs         F       deg       mph         %      W/m2      volt      volt
              Ccp-Rev   Ccp-Rev   Ccp-Rev   Ccp-Rev   Ccp-Rev  Regi-Rev  Regi-Rev   Ccp-Rev   Ccp-Rev   Ccp-Rev   Ccp-Rev   Ccp-Rev   Ccp-Rev   Ccp-Rev
(US/Central)
10/11 00:00      0.00      ----    628.48    624011    481.91         0        60     49.44    302.80      0.00     57.15      0.00     13.66     12.85
10/11 01:00      0.00      ----    628.49    624133    481.90      -901      -901     49.62    285.10      0.00     58.93      0.00     13.65     12.85
10/11 02:00      0.00      ----    628.49    624133    481.90      -901      -901     52.18    231.60      0.00     51.32      0.00     13.66     12.86
10/11 03:00      0.00      ----    628.48    624011    481.90      -901      -901     51.08    231.10      0.00     51.68      0.00     13.66     12.84
10/11 04:00      0.00      ----    628.49    624133    481.90      -901      -901     50.27    229.40      0.00     49.91      0.00     13.66     12.86
10/11 05:00      0.00      ----    628.48    624011    481.90      -901      -901     49.39    232.10      0.00     51.12      0.00     13.65     12.86
10/11 06:00      0.00      ----    628.49    624133    481.90      -901      -901     48.13    259.10      0.00     56.64      0.00     13.66     12.86
10/11 07:00      0.00      ----    628.49    624133    481.90      -901      -901     47.03    259.40      0.00     52.33      0.00     13.65     12.85
10/11 08:00      0.00      ----    628.48    624011    481.90      -901      -901     46.31    253.10      0.00     49.73      9.70     13.64     12.86
10/11 09:00      0.00      ----    628.49    624133    481.90      -901      -901     48.83    211.60      0.00     45.82    194.20     13.64     12.86
10/11 10:00      0.00      ----    628.49    624133    481.90      -901      -901     51.21    193.20      0.00     47.59    396.00     13.65     12.86
10/11 11:00      0.00      ----    628.49    624133    481.89      -901      -901     53.51    187.30      0.00     39.75    568.10     13.64     12.86
10/11 12:00      0.00      ----    628.49    624133    481.89      -901      -901     55.78    165.00      0.00     37.89    695.60     13.64     12.86
10/11 13:00      0.00      ----    628.49    624133    482.02      -901      -901     57.90    148.40      0.00     30.65    762.40     13.64     12.86
10/11 14:00      0.00      ----    628.48    624011    484.12      -901      -901     60.42    166.40      0.00     25.09    413.90     13.65     12.86
10/11 15:00      0.00      ----    628.47    623889    484.17      -901      -901     62.15    168.30      0.00     26.61    506.80     13.65     13.10
10/11 16:00      0.00      ----    628.45    623646    486.97      -901      -901     63.81    160.60      0.00     24.78    553.50     13.64     12.86
10/11 17:00      0.00      ----    628.43    623402    487.01      -901      -901     64.63    171.50      0.00     25.59    392.50     13.65     12.86
10/11 18:00      0.00      ----    628.42    623280    484.30      -901      -901     64.18    197.10      0.00     24.31    158.70     13.65     12.86
10/11 19:00      0.00      ----    628.41    623158    482.14      -901      -901     61.23    279.80      0.00     28.70      1.80     13.65     12.86
10/11 20:00      0.00      ----    628.42    623280    481.95      -901      -901     55.54    206.90      0.00     49.94      0.00     13.65     12.84
10/11 21:00      0.00      ----    628.42    623280    481.91      -901      -901     52.18    186.30      0.00     55.36      0.00     13.65     12.86
10/11 22:00      0.00      ----    628.42    623280    481.90      -901      -901     51.31    174.80      0.00     65.66      0.00     13.65     12.85
10/11 23:00      0.00      ----    628.41    623158    481.90      -901      -901     53.76    170.70      0.00     49.80      0.00     13.65     12.96